Time;durP1;ratioP1;P1;durP2;ratioP2;P2;SDS_P1;SDS_P2;PMS_P1;PMS_P2;Temp;Humidity;BMP_temperature;BMP_pressure;BME280_temperature;BME280_humidity;BME280_pressure;Samples;Min_cycle;Max_cycle;Signal;HPM_P1;HPM_P2
2024/02/24 00:00:36;;;;;;;4.87;0.80;;;;;;;;;;5035108;28;20406;-81
2024/02/24 00:03:02;;;;;;;3.57;1.00;;;;;;;;;;5035332;28;20479;-82
2024/02/24 00:05:28;;;;;;;3.00;0.73;;;;;;;;;;5029660;28;20455;-82
2024/02/24 00:07:54;;;;;;;2.40;0.70;;;;;;;;;;5027145;28;20472;-82
2024/02/24 00:10:20;;;;;;;2.80;0.63;;;;;;;;;;5035277;28;20844;-81
2024/02/24 00:12:46;;;;;;;1.73;0.83;;;;;;;;;;5035114;28;20891;-81
2024/02/24 00:15:12;;;;;;;5.03;0.60;;;;;;;;;;5033875;28;20435;-82
2024/02/24 00:17:38;;;;;;;2.00;0.20;;;;;;;;;;5034870;28;20420;-81
2024/02/24 00:20:05;;;;;;;2.50;1.07;;;;;;;;;;5035044;28;20472;-82
2024/02/24 00:22:31;;;;;;;1.90;0.60;;;;;;;;;;5034917;28;20476;-80
2024/02/24 00:24:57;;;;;;;4.40;0.90;;;;;;;;;;5034560;28;20405;-81
2024/02/24 00:27:23;;;;;;;1.87;1.13;;;;;;;;;;5034920;28;20471;-82
2024/02/24 00:29:49;;;;;;;2.23;0.60;;;;;;;;;;5034893;28;20468;-80
2024/02/24 00:32:15;;;;;;;3.50;0.50;;;;;;;;;;5030926;28;20426;-81
2024/02/24 00:34:41;;;;;;;4.93;0.37;;;;;;;;;;5022825;28;20477;-80
2024/02/24 00:37:07;;;;;;;5.70;1.43;;;;;;;;;;5015147;28;20416;-83
2024/02/24 00:39:33;;;;;;;1.70;0.60;;;;;;;;;;5014987;28;20408;-82
2024/02/24 00:41:58;;;;;;;1.67;0.37;;;;;;;;;;5014777;28;20568;-81
2024/02/24 00:44:24;;;;;;;1.70;0.77;;;;;;;;;;5029931;28;20985;-81
2024/02/24 00:46:50;;;;;;;3.23;0.60;;;;;;;;;;5014185;28;20484;-81
2024/02/24 00:49:16;;;;;;;2.30;0.20;;;;;;;;;;5014818;28;20447;-82
2024/02/24 00:51:42;;;;;;;2.10;1.27;;;;;;;;;;5014682;28;20438;-83
2024/02/24 00:54:08;;;;;;;5.40;1.17;;;;;;;;;;5031879;28;20494;-82
2024/02/24 00:56:34;;;;;;;3.53;0.97;;;;;;;;;;5018764;28;21019;-79
2024/02/24 00:59:03;;;;;;;2.67;0.50;;;;;;;;;;5014328;28;20424;-80
2024/02/24 01:01:29;;;;;;;1.63;0.50;;;;;;;;;;5013843;28;20465;-80
2024/02/24 01:03:55;;;;;;;1.30;0.50;;;;;;;;;;5014249;28;20469;-79
2024/02/24 01:06:22;;;;;;;2.30;0.63;;;;;;;;;;5014254;28;20505;-79
2024/02/24 01:08:47;;;;;;;2.83;1.03;;;;;;;;;;5012927;28;20418;-81
2024/02/24 01:11:13;;;;;;;2.03;0.77;;;;;;;;;;5014086;28;20461;-81
2024/02/24 01:13:39;;;;;;;1.70;0.60;;;;;;;;;;5014084;28;20430;-79
2024/02/24 01:16:05;;;;;;;2.13;0.90;;;;;;;;;;5012030;28;20767;-80
2024/02/24 01:18:31;;;;;;;2.07;0.67;;;;;;;;;;5013982;28;20444;-80
2024/02/24 01:20:57;;;;;;;6.10;0.70;;;;;;;;;;5013844;28;20418;-78
2024/02/24 01:23:24;;;;;;;2.63;0.60;;;;;;;;;;5013830;28;20427;-79
2024/02/24 01:25:50;;;;;;;1.90;0.73;;;;;;;;;;5013784;28;20441;-79
2024/02/24 01:28:16;;;;;;;1.60;0.73;;;;;;;;;;5013758;28;20418;-80
2024/02/24 01:30:42;;;;;;;1.87;0.50;;;;;;;;;;5013698;28;20438;-79
2024/02/24 01:33:09;;;;;;;5.80;1.13;;;;;;;;;;5013499;28;20414;-80
2024/02/24 01:35:35;;;;;;;4.73;1.20;;;;;;;;;;5012920;28;20400;-80
2024/02/24 01:38:01;;;;;;;3.13;0.60;;;;;;;;;;5013593;28;20411;-81
2024/02/24 01:40:28;;;;;;;1.80;1.00;;;;;;;;;;5013634;28;20443;-80
2024/02/24 01:42:54;;;;;;;1.53;0.90;;;;;;;;;;5013604;28;20469;-81
2024/02/24 01:45:20;;;;;;;1.53;0.80;;;;;;;;;;5012022;28;20475;-81
2024/02/24 01:47:46;;;;;;;3.13;0.70;;;;;;;;;;5012280;28;20434;-80
2024/02/24 01:50:13;;;;;;;2.37;0.77;;;;;;;;;;5013441;28;20422;-82
2024/02/24 01:52:43;;;;;;;2.73;1.13;;;;;;;;;;5013432;28;20418;-81
2024/02/24 01:55:10;;;;;;;2.63;1.00;;;;;;;;;;5013456;28;20418;-81
2024/02/24 01:57:41;;;;;;;3.83;0.70;;;;;;;;;;5013251;28;20567;-81
2024/02/24 02:00:09;;;;;;;2.50;1.23;;;;;;;;;;5012717;28;20513;-81
2024/02/24 02:02:35;;;;;;;4.87;1.07;;;;;;;;;;5013052;28;20469;-81
2024/02/24 02:05:01;;;;;;;6.07;2.80;;;;;;;;;;5013248;28;20964;-82
2024/02/24 02:07:26;;;;;;;7.63;1.33;;;;;;;;;;5013114;28;20441;-80
2024/02/24 02:09:53;;;;;;;3.70;0.80;;;;;;;;;;5011766;28;20922;-81
2024/02/24 02:12:19;;;;;;;2.77;0.70;;;;;;;;;;5013267;28;20413;-81
2024/02/24 02:14:45;;;;;;;1.90;1.00;;;;;;;;;;5013250;28;20464;-81
2024/02/24 02:17:11;;;;;;;5.80;1.37;;;;;;;;;;5012647;28;20423;-80
2024/02/24 02:19:40;;;;;;;2.97;0.73;;;;;;;;;;5016452;28;20428;-80
2024/02/24 02:22:10;;;;;;;2.50;0.80;;;;;;;;;;5032993;28;20475;-80
2024/02/24 02:24:36;;;;;;;1.47;0.70;;;;;;;;;;5033117;28;20971;-79
2024/02/24 02:27:06;;;;;;;1.30;0.70;;;;;;;;;;5032971;28;20421;-80
2024/02/24 02:29:32;;;;;;;2.00;0.60;;;;;;;;;;5031781;28;20781;-81
2024/02/24 02:31:58;;;;;;;1.33;0.60;;;;;;;;;;5032678;28;20435;-79
2024/02/24 02:34:24;;;;;;;2.90;0.93;;;;;;;;;;5032833;28;20439;-79
2024/02/24 02:36:50;;;;;;;5.63;0.60;;;;;;;;;;5031740;28;20409;-79
2024/02/24 02:39:16;;;;;;;3.70;1.20;;;;;;;;;;5032908;28;20421;-79
2024/02/24 02:41:41;;;;;;;4.83;0.50;;;;;;;;;;5032719;28;20477;-79
2024/02/24 02:44:08;;;;;;;3.57;0.97;;;;;;;;;;5032859;28;20769;-79
2024/02/24 02:46:34;;;;;;;4.20;0.87;;;;;;;;;;5032227;28;20421;-79
2024/02/24 02:49:00;;;;;;;1.47;0.57;;;;;;;;;;5032725;28;20786;-79
2024/02/24 02:51:26;;;;;;;2.97;1.07;;;;;;;;;;5032770;28;20433;-79
2024/02/24 02:53:52;;;;;;;5.77;0.90;;;;;;;;;;5031451;28;20769;-79
2024/02/24 02:56:20;;;;;;;5.23;0.93;;;;;;;;;;5032376;28;20468;-81
2024/02/24 02:58:49;;;;;;;3.20;1.30;;;;;;;;;;5031475;28;20468;-79
2024/02/24 03:01:15;;;;;;;3.50;1.57;;;;;;;;;;5032170;28;20575;-79
2024/02/24 03:03:41;;;;;;;5.23;1.07;;;;;;;;;;5032668;28;20501;-84
2024/02/24 03:06:07;;;;;;;2.60;1.30;;;;;;;;;;5032540;28;20859;-80
2024/02/24 03:08:33;;;;;;;2.97;1.20;;;;;;;;;;5032481;28;20417;-79
2024/02/24 03:11:03;;;;;;;2.13;0.70;;;;;;;;;;5032469;28;20413;-79
2024/02/24 03:13:31;;;;;;;4.33;0.83;;;;;;;;;;5031306;28;20798;-80
2024/02/24 03:15:57;;;;;;;4.67;1.20;;;;;;;;;;5032207;28;20419;-80
2024/02/24 03:18:23;;;;;;;1.37;0.97;;;;;;;;;;5031204;28;20434;-80
2024/02/24 03:20:49;;;;;;;1.63;0.93;;;;;;;;;;5032400;28;20786;-82
2024/02/24 03:23:15;;;;;;;2.30;1.10;;;;;;;;;;5032306;28;20464;-80
2024/02/24 03:25:41;;;;;;;2.30;1.37;;;;;;;;;;5031074;28;20836;-81
2024/02/24 03:28:07;;;;;;;1.30;0.83;;;;;;;;;;5032307;28;20762;-80
2024/02/24 03:30:33;;;;;;;2.87;0.87;;;;;;;;;;5030586;28;20460;-80
2024/02/24 03:32:59;;;;;;;2.40;1.30;;;;;;;;;;5030816;28;20409;-80
2024/02/24 03:35:25;;;;;;;2.00;1.30;;;;;;;;;;5030855;28;20413;-80
2024/02/24 03:37:51;;;;;;;2.13;0.60;;;;;;;;;;5030900;28;20495;-79
2024/02/24 03:40:17;;;;;;;4.33;1.37;;;;;;;;;;5030931;28;20435;-81
2024/02/24 03:42:43;;;;;;;4.03;1.00;;;;;;;;;;5030834;28;20487;-80
2024/02/24 03:45:10;;;;;;;4.43;0.90;;;;;;;;;;5031842;28;20509;-80
2024/02/24 03:47:35;;;;;;;1.73;0.83;;;;;;;;;;5032020;28;20505;-79
2024/02/24 03:50:01;;;;;;;1.50;0.87;;;;;;;;;;5032091;28;20438;-80
2024/02/24 03:52:27;;;;;;;2.93;1.17;;;;;;;;;;5032086;28;20842;-79
2024/02/24 03:54:53;;;;;;;5.80;1.00;;;;;;;;;;5039390;28;20522;-79
2024/02/24 03:57:19;;;;;;;2.73;1.90;;;;;;;;;;5032228;28;20469;-80
2024/02/24 03:59:45;;;;;;;4.63;1.20;;;;;;;;;;5034032;28;20420;-80
2024/02/24 04:02:11;;;;;;;4.43;0.93;;;;;;;;;;5035485;28;20468;-81
2024/02/24 04:04:39;;;;;;;6.53;1.50;;;;;;;;;;5035588;28;20417;-80
2024/02/24 04:07:05;;;;;;;2.80;0.90;;;;;;;;;;5035525;28;20425;-82
2024/02/24 04:09:31;;;;;;;2.77;0.67;;;;;;;;;;5035505;28;20416;-81
2024/02/24 04:11:57;;;;;;;3.87;1.40;;;;;;;;;;5034159;28;20421;-80
2024/02/24 04:14:23;;;;;;;1.50;1.00;;;;;;;;;;5035305;28;20744;-81
2024/02/24 04:16:49;;;;;;;2.77;1.10;;;;;;;;;;5034947;28;20429;-80
2024/02/24 04:19:15;;;;;;;2.70;1.07;;;;;;;;;;5035265;28;20415;-81
2024/02/24 04:21:41;;;;;;;1.47;0.90;;;;;;;;;;5035146;28;20465;-81
2024/02/24 04:24:07;;;;;;;1.13;1.00;;;;;;;;;;5035235;28;20419;-82
2024/02/24 04:26:33;;;;;;;2.33;1.10;;;;;;;;;;5035155;28;20414;-81
2024/02/24 04:28:59;;;;;;;3.83;1.27;;;;;;;;;;5033821;28;20512;-80
2024/02/24 04:31:27;;;;;;;2.40;1.30;;;;;;;;;;5034784;28;20493;-81
2024/02/24 04:33:53;;;;;;;4.33;1.43;;;;;;;;;;5034996;28;20405;-81
2024/02/24 04:36:19;;;;;;;2.03;0.80;;;;;;;;;;5034988;28;20422;-80
2024/02/24 04:38:45;;;;;;;3.60;0.70;;;;;;;;;;5034774;28;20416;-81
2024/02/24 04:41:11;;;;;;;2.77;1.13;;;;;;;;;;5034726;28;20413;-80
2024/02/24 04:43:37;;;;;;;4.93;0.93;;;;;;;;;;5034786;28;20981;-81
2024/02/24 04:46:03;;;;;;;11.00;1.80;;;;;;;;;;5034487;28;20409;-82
2024/02/24 04:48:29;;;;;;;5.37;1.27;;;;;;;;;;5034759;28;20897;-81
2024/02/24 04:50:55;;;;;;;4.13;1.23;;;;;;;;;;5034711;28;20495;-79
2024/02/24 04:53:20;;;;;;;5.33;1.40;;;;;;;;;;5034801;28;20421;-79
2024/02/24 04:55:46;;;;;;;5.47;0.93;;;;;;;;;;5034459;28;20417;-79
2024/02/24 04:58:12;;;;;;;2.17;1.07;;;;;;;;;;5034722;28;20417;-79
2024/02/24 05:00:38;;;;;;;4.50;0.83;;;;;;;;;;5034147;28;20474;-79
2024/02/24 05:03:04;;;;;;;3.43;1.20;;;;;;;;;;5034432;28;20470;-80
2024/02/24 05:05:30;;;;;;;3.30;1.03;;;;;;;;;;5034532;28;20413;-79
2024/02/24 05:07:56;;;;;;;2.63;1.40;;;;;;;;;;5034433;28;20567;-80
2024/02/24 05:10:22;;;;;;;3.20;1.00;;;;;;;;;;5034361;28;20881;-79
2024/02/24 05:12:51;;;;;;;1.40;0.77;;;;;;;;;;5034294;28;20809;-79
2024/02/24 05:15:17;;;;;;;4.57;1.60;;;;;;;;;;5032618;28;20412;-79
2024/02/24 05:17:43;;;;;;;2.60;1.23;;;;;;;;;;5032889;28;20440;-79
2024/02/24 05:20:10;;;;;;;2.10;0.67;;;;;;;;;;5034167;28;20414;-80
2024/02/24 05:22:36;;;;;;;8.93;1.23;;;;;;;;;;5034161;28;20528;-81
2024/02/24 05:25:02;;;;;;;2.47;1.37;;;;;;;;;;5034106;28;20406;-80
2024/02/24 05:27:28;;;;;;;3.50;1.50;;;;;;;;;;5032849;28;20821;-81
2024/02/24 05:29:54;;;;;;;3.70;1.03;;;;;;;;;;5033639;28;20437;-81
2024/02/24 05:32:20;;;;;;;2.37;0.90;;;;;;;;;;5033919;28;20845;-81
2024/02/24 05:34:49;;;;;;;4.40;1.57;;;;;;;;;;5034033;28;20417;-80
2024/02/24 05:37:15;;;;;;;6.60;1.33;;;;;;;;;;5033840;28;20489;-80
2024/02/24 05:39:41;;;;;;;2.33;1.07;;;;;;;;;;5033527;28;20429;-82
2024/02/24 05:42:07;;;;;;;3.07;1.33;;;;;;;;;;5033364;28;20531;-80
2024/02/24 05:44:33;;;;;;;4.40;1.20;;;;;;;;;;5033320;28;20437;-83
2024/02/24 05:46:59;;;;;;;5.43;1.73;;;;;;;;;;5033711;28;20418;-82
2024/02/24 05:49:25;;;;;;;2.47;1.70;;;;;;;;;;5033751;28;20404;-83
2024/02/24 05:51:51;;;;;;;3.10;1.23;;;;;;;;;;5033735;28;20866;-82
2024/02/24 05:54:17;;;;;;;2.70;1.80;;;;;;;;;;5033657;28;20419;-82
2024/02/24 05:56:43;;;;;;;3.97;0.90;;;;;;;;;;5033374;28;20838;-81
2024/02/24 05:59:12;;;;;;;5.77;0.70;;;;;;;;;;5033612;28;20441;-80
2024/02/24 06:01:38;;;;;;;4.53;1.53;;;;;;;;;;5033025;28;20916;-81
2024/02/24 06:04:04;;;;;;;2.20;1.50;;;;;;;;;;5033433;28;20405;-81
2024/02/24 06:06:30;;;;;;;2.70;1.73;;;;;;;;;;5033413;28;20979;-80
2024/02/24 06:08:55;;;;;;;3.43;1.23;;;;;;;;;;5033328;28;20402;-80
2024/02/24 06:11:21;;;;;;;2.30;0.97;;;;;;;;;;5033271;28;20419;-81
2024/02/24 06:13:47;;;;;;;2.43;0.90;;;;;;;;;;5033222;28;20406;-81
2024/02/24 06:16:13;;;;;;;4.40;1.30;;;;;;;;;;5033022;28;20406;-82
2024/02/24 06:18:39;;;;;;;2.60;1.43;;;;;;;;;;5031788;28;20475;-80
2024/02/24 06:21:07;;;;;;;4.83;1.97;;;;;;;;;;5033065;28;20409;-80
2024/02/24 06:23:33;;;;;;;1.57;0.97;;;;;;;;;;5031619;28;20421;-82
2024/02/24 06:25:59;;;;;;;5.90;2.00;;;;;;;;;;5032825;28;20451;-80
2024/02/24 06:28:28;;;;;;;1.87;1.10;;;;;;;;;;5031637;28;20428;-81
2024/02/24 06:30:54;;;;;;;3.73;1.27;;;;;;;;;;5032573;28;20400;-82
2024/02/24 06:33:19;;;;;;;2.80;1.00;;;;;;;;;;5032915;28;20413;-79
2024/02/24 06:35:45;;;;;;;2.60;1.03;;;;;;;;;;5032894;28;20437;-82
2024/02/24 06:38:11;;;;;;;3.50;1.30;;;;;;;;;;5032799;28;20885;-81
2024/02/24 06:40:37;;;;;;;4.50;1.80;;;;;;;;;;5032814;28;20766;-80
2024/02/24 06:43:03;;;;;;;6.20;1.27;;;;;;;;;;5032630;28;20972;-81
2024/02/24 06:45:29;;;;;;;2.37;1.00;;;;;;;;;;5032338;28;20868;-82
2024/02/24 06:47:55;;;;;;;2.90;1.70;;;;;;;;;;5032784;28;20408;-81
2024/02/24 06:50:21;;;;;;;3.77;1.20;;;;;;;;;;5032710;28;20415;-83
2024/02/24 06:52:47;;;;;;;3.70;1.57;;;;;;;;;;5032628;28;20463;-83
2024/02/24 06:55:13;;;;;;;0.83;0.60;;;;;;;;;;5032699;28;20409;-83
2024/02/24 06:57:39;;;;;;;3.50;1.63;;;;;;;;;;5032466;28;20471;-82
2024/02/24 07:00:05;;;;;;;4.07;1.77;;;;;;;;;;5032301;28;20405;-82
2024/02/24 07:02:31;;;;;;;7.20;4.23;;;;;;;;;;5032421;28;20468;-85
2024/02/24 07:04:57;;;;;;;4.90;1.57;;;;;;;;;;5032512;28;20527;-82
2024/02/24 07:07:23;;;;;;;2.90;1.60;;;;;;;;;;5030741;28;20421;-83
2024/02/24 07:09:49;;;;;;;4.23;1.03;;;;;;;;;;5031935;28;20432;-82
2024/02/24 07:12:15;;;;;;;6.63;1.40;;;;;;;;;;5032033;28;20426;-82
2024/02/24 07:14:41;;;;;;;6.07;2.17;;;;;;;;;;5031614;28;20447;-82
2024/02/24 07:17:07;;;;;;;4.83;1.30;;;;;;;;;;5032236;28;20452;-82
2024/02/24 07:19:33;;;;;;;2.40;0.97;;;;;;;;;;5031986;28;20477;-81
2024/02/24 07:22:00;;;;;;;3.97;1.53;;;;;;;;;;5031656;28;20468;-81
2024/02/24 07:24:26;;;;;;;3.30;1.10;;;;;;;;;;5031752;28;20424;-81
2024/02/24 07:26:52;;;;;;;2.93;1.07;;;;;;;;;;5031812;28;20401;-82
2024/02/24 07:29:18;;;;;;;2.77;0.80;;;;;;;;;;5031648;28;20422;-82
2024/02/24 07:31:44;;;;;;;1.43;0.77;;;;;;;;;;5032241;28;20409;-82
2024/02/24 07:34:10;;;;;;;4.33;1.40;;;;;;;;;;5033469;28;20766;-83
2024/02/24 07:36:39;;;;;;;3.00;1.10;;;;;;;;;;5036115;28;20441;-82
2024/02/24 07:39:05;;;;;;;7.23;1.00;;;;;;;;;;5036166;28;20417;-82
2024/02/24 07:41:30;;;;;;;3.17;0.80;;;;;;;;;;5035990;28;20543;-82
2024/02/24 07:43:56;;;;;;;3.47;1.60;;;;;;;;;;5034724;28;20910;-85
2024/02/24 07:46:29;;;;;;;4.53;1.33;;;;;;;;;;5035682;28;20490;-82
2024/02/24 07:48:55;;;;;;;3.83;1.10;;;;;;;;;;5036473;28;20769;-86
2024/02/24 07:51:21;;;;;;;3.67;1.13;;;;;;;;;;5035148;28;20871;-86
2024/02/24 07:53:47;;;;;;;1.43;0.90;;;;;;;;;;5036362;28;20849;-87
2024/02/24 07:56:13;;;;;;;3.73;0.90;;;;;;;;;;5035181;28;20461;-85
2024/02/24 07:58:39;;;;;;;4.73;1.13;;;;;;;;;;5037293;28;20456;-83
2024/02/24 08:01:05;;;;;;;3.10;1.00;;;;;;;;;;5036266;28;20413;-86
2024/02/24 08:03:57;;;;;;;4.40;1.50;;;;;;;;;;5035800;28;20818;-85
2024/02/24 08:06:26;;;;;;;2.90;1.93;;;;;;;;;;5035288;28;20422;-87
2024/02/24 08:08:52;;;;;;;3.80;1.47;;;;;;;;;;5035777;28;20423;-85
2024/02/24 08:11:18;;;;;;;3.57;1.53;;;;;;;;;;5036137;28;20410;-87
2024/02/24 08:13:46;;;;;;;7.23;1.57;;;;;;;;;;5035837;28;20512;-85
2024/02/24 08:16:12;;;;;;;5.03;1.40;;;;;;;;;;5035571;28;20500;-85
2024/02/24 08:18:39;;;;;;;4.20;1.13;;;;;;;;;;5035909;28;20411;-85
2024/02/24 08:21:06;;;;;;;2.10;1.27;;;;;;;;;;5035746;28;20524;-86
2024/02/24 08:23:34;;;;;;;1.50;0.70;;;;;;;;;;5034409;28;20425;-84
2024/02/24 08:26:01;;;;;;;2.60;1.40;;;;;;;;;;5035334;28;20865;-82
2024/02/24 08:28:27;;;;;;;4.50;1.37;;;;;;;;;;5034252;28;20457;-82
2024/02/24 08:30:56;;;;;;;4.63;0.93;;;;;;;;;;5034836;28;20414;-82
2024/02/24 08:33:22;;;;;;;6.07;1.20;;;;;;;;;;5034071;28;20415;-83
2024/02/24 08:35:53;;;;;;;3.33;1.53;;;;;;;;;;5035279;28;20456;-83
2024/02/24 08:38:19;;;;;;;3.40;1.33;;;;;;;;;;5035125;28;20413;-83
2024/02/24 08:40:44;;;;;;;5.60;2.30;;;;;;;;;;5035309;28;20415;-82
2024/02/24 08:43:10;;;;;;;3.63;1.27;;;;;;;;;;5034894;28;20564;-82
2024/02/24 08:45:36;;;;;;;4.43;1.67;;;;;;;;;;5034483;28;20937;-82
2024/02/24 08:48:03;;;;;;;6.17;1.70;;;;;;;;;;5034736;28;20418;-84
2024/02/24 08:50:29;;;;;;;2.03;0.73;;;;;;;;;;5034962;28;20413;-83
2024/02/24 08:53:15;;;;;;;3.43;1.40;;;;;;;;;;5034616;28;20403;-86
2024/02/24 08:55:54;;;;;;;3.53;1.50;;;;;;;;;;5034562;28;20407;-84
2024/02/24 08:58:20;;;;;;;2.90;1.50;;;;;;;;;;5035067;28;20422;-82
2024/02/24 09:00:45;;;;;;;2.63;0.97;;;;;;;;;;5034818;28;20409;-80
2024/02/24 09:03:11;;;;;;;2.57;1.07;;;;;;;;;;5034697;28;20470;-82
2024/02/24 09:05:37;;;;;;;5.17;1.03;;;;;;;;;;5033177;28;20407;-82
2024/02/24 09:08:04;;;;;;;4.73;1.23;;;;;;;;;;5031377;28;20440;-82
2024/02/24 09:10:29;;;;;;;2.20;1.13;;;;;;;;;;5032535;28;20506;-82
2024/02/24 09:12:55;;;;;;;3.50;1.30;;;;;;;;;;5033361;28;20508;-83
2024/02/24 09:15:21;;;;;;;2.60;0.93;;;;;;;;;;5032075;28;20440;-84
2024/02/24 09:17:47;;;;;;;2.90;1.10;;;;;;;;;;5034055;28;20823;-86
2024/02/24 09:20:13;;;;;;;3.77;1.03;;;;;;;;;;5033779;28;20184;-83
2024/02/24 09:22:41;;;;;;;2.33;0.70;;;;;;;;;;5033403;28;20472;-83
2024/02/24 09:25:07;;;;;;;5.40;0.97;;;;;;;;;;5033649;28;20945;-83
2024/02/24 09:27:33;;;;;;;6.70;1.00;;;;;;;;;;5033324;28;20862;-84
2024/02/24 09:29:59;;;;;;;4.77;1.70;;;;;;;;;;5033314;28;20401;-83
2024/02/24 09:32:25;;;;;;;4.57;0.73;;;;;;;;;;5033040;28;20418;-85
2024/02/24 09:34:51;;;;;;;6.17;0.73;;;;;;;;;;5033743;28;20419;-86
2024/02/24 09:37:17;;;;;;;2.40;0.90;;;;;;;;;;5033326;28;20428;-85
2024/02/24 09:39:46;;;;;;;4.77;0.60;;;;;;;;;;5032388;28;20417;-84
2024/02/24 09:42:12;;;;;;;2.67;1.07;;;;;;;;;;5033023;28;20554;-83
2024/02/24 09:44:39;;;;;;;4.00;0.70;;;;;;;;;;5033043;28;20952;-84
2024/02/24 09:47:05;;;;;;;2.27;0.93;;;;;;;;;;5033397;28;20807;-87
2024/02/24 09:49:31;;;;;;;3.00;1.10;;;;;;;;;;5031968;28;20773;-85
2024/02/24 09:51:58;;;;;;;2.70;0.20;;;;;;;;;;5031046;28;20778;-83
2024/02/24 09:54:25;;;;;;;3.67;0.80;;;;;;;;;;5013567;28;20921;-85
2024/02/24 09:56:53;;;;;;;1.37;0.93;;;;;;;;;;5011645;28;20826;-83
2024/02/24 09:59:26;;;;;;;2.40;0.50;;;;;;;;;;5013565;28;20425;-82
2024/02/24 10:01:52;;;;;;;3.30;0.47;;;;;;;;;;5013549;28;20463;-83
2024/02/24 10:04:19;;;;;;;1.50;0.87;;;;;;;;;;5013838;28;20906;-86
2024/02/24 10:06:45;;;;;;;1.40;0.60;;;;;;;;;;5021362;28;20418;-82
2024/02/24 10:09:11;;;;;;;1.83;0.70;;;;;;;;;;5029838;28;20452;-84
2024/02/24 10:11:37;;;;;;;2.50;0.53;;;;;;;;;;5033049;28;20852;-81
2024/02/24 10:14:07;;;;;;;2.03;0.43;;;;;;;;;;5031687;28;20908;-84
2024/02/24 10:16:37;;;;;;;3.67;1.17;;;;;;;;;;5033097;28;20404;-85
2024/02/24 10:19:04;;;;;;;1.10;0.20;;;;;;;;;;5033093;28;20418;-81
2024/02/24 10:21:30;;;;;;;2.63;0.67;;;;;;;;;;5033033;28;20875;-81
2024/02/24 10:23:56;;;;;;;4.93;0.77;;;;;;;;;;5032989;28;20452;-84
2024/02/24 10:26:23;;;;;;;2.60;0.60;;;;;;;;;;5032811;28;20862;-83
2024/02/24 10:28:49;;;;;;;1.53;0.67;;;;;;;;;;5031501;28;20690;-81
2024/02/24 10:31:15;;;;;;;2.57;0.60;;;;;;;;;;5027242;28;20427;-81
2024/02/24 10:33:42;;;;;;;3.63;0.47;;;;;;;;;;5031478;28;20175;-82
2024/02/24 10:36:09;;;;;;;2.80;0.70;;;;;;;;;;5031270;28;20516;-82
2024/02/24 10:38:37;;;;;;;1.63;0.40;;;;;;;;;;5032575;28;20868;-82
2024/02/24 10:41:03;;;;;;;1.47;0.40;;;;;;;;;;5032554;28;20523;-81
2024/02/24 10:43:32;;;;;;;3.33;0.63;;;;;;;;;;5026274;28;20951;-83
2024/02/24 10:45:58;;;;;;;3.87;0.93;;;;;;;;;;5012468;28;20416;-82
2024/02/24 10:48:24;;;;;;;1.63;0.40;;;;;;;;;;5012810;28;20414;-83
2024/02/24 10:50:50;;;;;;;3.33;0.40;;;;;;;;;;5012626;28;20170;-81
2024/02/24 10:53:17;;;;;;;0.77;0.30;;;;;;;;;;5012685;28;20221;-82
2024/02/24 10:55:44;;;;;;;2.60;0.80;;;;;;;;;;5012453;28;20422;-81
2024/02/24 10:58:10;;;;;;;3.07;0.50;;;;;;;;;;5011420;28;20436;-84
2024/02/24 11:00:36;;;;;;;2.13;0.70;;;;;;;;;;5010965;28;20433;-81
2024/02/24 11:03:04;;;;;;;1.30;0.43;;;;;;;;;;5012550;28;20462;-84
2024/02/24 11:05:31;;;;;;;6.10;1.00;;;;;;;;;;5012684;28;20402;-81
2024/02/24 11:07:57;;;;;;;2.03;0.30;;;;;;;;;;5013559;28;20419;-83
2024/02/24 11:10:23;;;;;;;1.63;0.43;;;;;;;;;;5016604;28;20781;-82
2024/02/24 11:12:52;;;;;;;4.40;0.57;;;;;;;;;;5016299;28;20471;-83
2024/02/24 11:15:19;;;;;;;0.93;0.20;;;;;;;;;;5016271;28;20406;-82
2024/02/24 11:17:52;;;;;;;1.27;0.30;;;;;;;;;;5016623;28;20454;-82
2024/02/24 11:20:37;;;;;;;1.53;0.30;;;;;;;;;;5017129;28;20413;-83
2024/02/24 11:23:21;;;;;;;0.63;0.20;;;;;;;;;;5016322;28;20410;-81
2024/02/24 11:25:47;;;;;;;1.83;0.47;;;;;;;;;;5016257;28;20515;-82
2024/02/24 11:28:21;;;;;;;2.33;0.30;;;;;;;;;;5016326;28;20485;-82
2024/02/24 11:30:50;;;;;;;1.80;0.60;;;;;;;;;;5015603;28;20396;-81
2024/02/24 11:33:29;;;;;;;1.47;0.50;;;;;;;;;;5016032;28;20468;-81
2024/02/24 11:35:55;;;;;;;1.60;0.97;;;;;;;;;;5015897;28;20420;-81
2024/02/24 11:38:22;;;;;;;2.47;0.50;;;;;;;;;;5017845;28;20409;-81
2024/02/24 11:40:49;;;;;;;1.27;0.40;;;;;;;;;;5035641;28;20460;-82
2024/02/24 11:43:16;;;;;;;1.90;0.20;;;;;;;;;;5035590;28;20413;-81
2024/02/24 11:45:46;;;;;;;1.10;0.20;;;;;;;;;;5035132;28;20409;-85
2024/02/24 11:48:16;;;;;;;0.60;0.60;;;;;;;;;;5034085;28;20485;-81
2024/02/24 11:50:42;;;;;;;1.00;0.30;;;;;;;;;;5035417;28;20416;-82
2024/02/24 11:53:08;;;;;;;1.27;0.23;;;;;;;;;;5035273;28;20827;-83
2024/02/24 11:55:37;;;;;;;2.00;0.40;;;;;;;;;;5033841;28;20424;-81
2024/02/24 11:58:07;;;;;;;4.03;0.43;;;;;;;;;;5035172;28;20468;-81
2024/02/24 12:00:37;;;;;;;1.40;0.33;;;;;;;;;;5034847;28;20455;-82
2024/02/24 12:03:06;;;;;;;0.87;0.20;;;;;;;;;;5035176;28;20412;-84
2024/02/24 12:05:32;;;;;;;1.73;0.30;;;;;;;;;;5035252;28;20450;-80
2024/02/24 12:08:06;;;;;;;0.80;0.40;;;;;;;;;;5035145;28;20893;-80
2024/02/24 12:10:36;;;;;;;0.67;0.20;;;;;;;;;;5035024;28;20411;-80
2024/02/24 12:13:03;;;;;;;0.77;0.33;;;;;;;;;;5034931;28;20515;-81
2024/02/24 12:15:29;;;;;;;1.13;0.30;;;;;;;;;;5034576;28;20417;-81
2024/02/24 12:17:55;;;;;;;1.57;0.70;;;;;;;;;;5034905;28;20754;-81
2024/02/24 12:20:25;;;;;;;0.83;0.20;;;;;;;;;;5034140;28;20179;-82
2024/02/24 12:22:51;;;;;;;2.73;0.30;;;;;;;;;;5034927;28;20175;-81
2024/02/24 12:25:17;;;;;;;2.00;0.50;;;;;;;;;;5033735;28;20783;-83
2024/02/24 12:27:43;;;;;;;1.90;0.50;;;;;;;;;;5034845;28;20978;-83
2024/02/24 12:30:10;;;;;;;2.33;0.47;;;;;;;;;;5034287;28;20406;-84
2024/02/24 12:32:36;;;;;;;3.20;0.73;;;;;;;;;;5034624;28;20473;-84
2024/02/24 12:35:03;;;;;;;1.57;0.30;;;;;;;;;;5034707;28;20753;-82
2024/02/24 12:37:32;;;;;;;3.23;0.70;;;;;;;;;;5034593;28;20551;-84
2024/02/24 12:39:58;;;;;;;1.33;0.40;;;;;;;;;;5034610;28;20407;-82
2024/02/24 12:42:25;;;;;;;1.50;0.40;;;;;;;;;;5034735;28;20829;-83
2024/02/24 12:44:52;;;;;;;2.17;0.63;;;;;;;;;;5034293;28;20407;-86
2024/02/24 12:47:18;;;;;;;0.87;0.20;;;;;;;;;;5033674;28;20945;-83
2024/02/24 12:49:44;;;;;;;3.23;0.60;;;;;;;;;;5020115;28;20413;-84
2024/02/24 12:52:10;;;;;;;2.00;0.30;;;;;;;;;;5014650;28;20477;-80
2024/02/24 12:54:36;;;;;;;1.23;0.20;;;;;;;;;;5013533;28;20468;-85
2024/02/24 12:57:02;;;;;;;1.20;0.60;;;;;;;;;;5014624;28;20462;-83
2024/02/24 12:59:31;;;;;;;0.93;0.30;;;;;;;;;;5014311;28;20429;-84
2024/02/24 13:01:58;;;;;;;3.13;0.23;;;;;;;;;;5013145;28;20799;-83
2024/02/24 13:04:24;;;;;;;1.50;0.30;;;;;;;;;;5014559;28;20446;-83
2024/02/24 13:06:50;;;;;;;1.70;0.63;;;;;;;;;;5014404;28;20499;-84
2024/02/24 13:09:16;;;;;;;0.57;0.20;;;;;;;;;;5014333;28;20402;-84
2024/02/24 13:11:42;;;;;;;1.07;0.37;;;;;;;;;;5014407;28;20542;-83
2024/02/24 13:14:08;;;;;;;0.77;0.30;;;;;;;;;;5014113;28;20800;-82
2024/02/24 13:16:34;;;;;;;1.27;0.50;;;;;;;;;;5014381;28;20405;-86
2024/02/24 13:19:00;;;;;;;1.60;0.30;;;;;;;;;;5012923;28;20456;-84
2024/02/24 13:21:26;;;;;;;0.90;0.30;;;;;;;;;;5014129;28;20902;-80
2024/02/24 13:23:53;;;;;;;3.30;0.80;;;;;;;;;;5029818;28;20418;-80
2024/02/24 13:26:19;;;;;;;0.50;0.27;;;;;;;;;;5034143;28;20613;-84
2024/02/24 13:28:45;;;;;;;1.20;0.47;;;;;;;;;;5033567;28;20917;-84
2024/02/24 13:31:11;;;;;;;1.57;0.20;;;;;;;;;;5031803;28;20448;-84
2024/02/24 13:33:37;;;;;;;1.40;0.50;;;;;;;;;;5033932;28;20473;-86
2024/02/24 13:36:03;;;;;;;0.83;0.30;;;;;;;;;;5034061;28;20412;-82
2024/02/24 13:38:29;;;;;;;1.20;0.20;;;;;;;;;;5030491;28;20432;-82
2024/02/24 13:40:55;;;;;;;1.00;0.30;;;;;;;;;;5033705;28;20405;-79
2024/02/24 13:43:21;;;;;;;2.40;0.30;;;;;;;;;;5033313;28;20939;-80
2024/02/24 13:45:47;;;;;;;1.10;0.37;;;;;;;;;;5033588;28;20424;-82
2024/02/24 13:48:13;;;;;;;1.40;0.40;;;;;;;;;;5033717;28;20965;-80
2024/02/24 13:50:39;;;;;;;1.07;0.23;;;;;;;;;;5032335;28;20425;-84
2024/02/24 13:53:05;;;;;;;3.90;0.30;;;;;;;;;;5033495;28;20476;-82
2024/02/24 13:55:31;;;;;;;1.70;0.30;;;;;;;;;;5033581;28;20405;-85
2024/02/24 13:57:57;;;;;;;0.87;0.20;;;;;;;;;;5032303;28;20558;-83
2024/02/24 14:00:23;;;;;;;0.50;0.20;;;;;;;;;;5033272;28;20420;-83
2024/02/24 14:02:49;;;;;;;1.13;0.43;;;;;;;;;;5033445;28;20424;-81
2024/02/24 14:05:15;;;;;;;1.23;0.30;;;;;;;;;;5033250;28;20500;-85
2024/02/24 14:07:44;;;;;;;1.03;0.20;;;;;;;;;;5033293;28;20424;-82
2024/02/24 14:10:10;;;;;;;2.00;0.30;;;;;;;;;;5032927;28;20422;-81
2024/02/24 14:12:36;;;;;;;1.37;0.30;;;;;;;;;;5033193;28;20460;-83
2024/02/24 14:15:02;;;;;;;0.93;0.40;;;;;;;;;;5033358;28;20403;-83
2024/02/24 14:17:29;;;;;;;2.10;0.50;;;;;;;;;;5033180;28;20914;-83
2024/02/24 14:19:56;;;;;;;0.70;0.30;;;;;;;;;;5032923;28;20424;-81
2024/02/24 14:22:22;;;;;;;3.83;0.20;;;;;;;;;;5033198;28;20892;-80
2024/02/24 14:24:48;;;;;;;1.60;0.20;;;;;;;;;;5033037;28;20426;-83
2024/02/24 14:27:14;;;;;;;1.77;0.67;;;;;;;;;;5033012;28;20466;-84
2024/02/24 14:29:40;;;;;;;0.93;0.50;;;;;;;;;;5032619;28;20973;-81
2024/02/24 14:32:11;;;;;;;2.13;0.57;;;;;;;;;;5032916;28;21315;-82
2024/02/24 14:34:37;;;;;;;2.47;0.97;;;;;;;;;;5033069;28;20407;-83
2024/02/24 14:37:03;;;;;;;0.80;0.60;;;;;;;;;;5032332;28;20819;-82
2024/02/24 14:39:30;;;;;;;1.33;0.40;;;;;;;;;;5032779;28;20473;-83